sensor_id;sensor_type;location;lat;lon;timestamp;temperature;humidity
37086;DHT22;23001;45.952;12.676;2023-11-21T00:02:06;8.60;99.90
37086;DHT22;23001;45.952;12.676;2023-11-21T00:04:32;8.60;99.90
37086;DHT22;23001;45.952;12.676;2023-11-21T00:06:59;8.60;99.90
37086;DHT22;23001;45.952;12.676;2023-11-21T00:09:25;8.60;99.90
37086;DHT22;23001;45.952;12.676;2023-11-21T00:11:51;8.60;99.90
37086;DHT22;23001;45.952;12.676;2023-11-21T00:14:16;8.60;99.90
37086;DHT22;23001;45.952;12.676;2023-11-21T00:16:42;8.60;99.90
37086;DHT22;23001;45.952;12.676;2023-11-21T00:19:07;8.70;99.90
37086;DHT22;23001;45.952;12.676;2023-11-21T00:21:33;8.70;99.90
37086;DHT22;23001;45.952;12.676;2023-11-21T00:23:58;8.60;99.90
37086;DHT22;23001;45.952;12.676;2023-11-21T00:26:24;8.70;99.90
37086;DHT22;23001;45.952;12.676;2023-11-21T00:28:50;8.70;99.90
37086;DHT22;23001;45.952;12.676;2023-11-21T00:31:16;8.70;99.90
37086;DHT22;23001;45.952;12.676;2023-11-21T00:33:41;8.80;99.90
37086;DHT22;23001;45.952;12.676;2023-11-21T00:36:07;8.80;99.90
37086;DHT22;23001;45.952;12.676;2023-11-21T00:38:35;8.80;99.90
37086;DHT22;23001;45.952;12.676;2023-11-21T00:41:00;8.80;99.90
37086;DHT22;23001;45.952;12.676;2023-11-21T00:43:26;8.90;99.90
37086;DHT22;23001;45.952;12.676;2023-11-21T00:45:52;8.60;99.90
37086;DHT22;23001;45.952;12.676;2023-11-21T00:48:17;8.90;99.90
37086;DHT22;23001;45.952;12.676;2023-11-21T00:50:46;8.90;99.90
37086;DHT22;23001;45.952;12.676;2023-11-21T00:53:11;8.80;99.90
37086;DHT22;23001;45.952;12.676;2023-11-21T00:55:37;8.80;99.90
37086;DHT22;23001;45.952;12.676;2023-11-21T00:58:05;8.90;99.90
37086;DHT22;23001;45.952;12.676;2023-11-21T01:00:32;8.90;99.90
37086;DHT22;23001;45.952;12.676;2023-11-21T01:02:58;8.90;99.90
37086;DHT22;23001;45.952;12.676;2023-11-21T01:05:24;8.90;99.90
37086;DHT22;23001;45.952;12.676;2023-11-21T01:07:49;8.90;99.90
37086;DHT22;23001;45.952;12.676;2023-11-21T01:10:15;8.90;99.90
37086;DHT22;23001;45.952;12.676;2023-11-21T01:12:42;8.90;99.90
37086;DHT22;23001;45.952;12.676;2023-11-21T01:15:08;8.90;99.90
37086;DHT22;23001;45.952;12.676;2023-11-21T01:17:34;8.90;99.90
37086;DHT22;23001;45.952;12.676;2023-11-21T01:20:00;8.90;99.90
37086;DHT22;23001;45.952;12.676;2023-11-21T01:22:26;8.90;99.90
37086;DHT22;23001;45.952;12.676;2023-11-21T01:24:52;8.80;99.90
37086;DHT22;23001;45.952;12.676;2023-11-21T01:27:17;8.80;99.90
37086;DHT22;23001;45.952;12.676;2023-11-21T01:29:43;8.80;99.90
37086;DHT22;23001;45.952;12.676;2023-11-21T01:32:10;8.80;99.90
37086;DHT22;23001;45.952;12.676;2023-11-21T01:34:35;8.80;99.90
37086;DHT22;23001;45.952;12.676;2023-11-21T01:37:01;8.80;99.90
37086;DHT22;23001;45.952;12.676;2023-11-21T01:39:30;8.80;99.90
37086;DHT22;23001;45.952;12.676;2023-11-21T01:41:55;8.80;99.90
37086;DHT22;23001;45.952;12.676;2023-11-21T01:44:24;8.80;99.90
37086;DHT22;23001;45.952;12.676;2023-11-21T01:46:50;8.70;99.90
37086;DHT22;23001;45.952;12.676;2023-11-21T01:49:16;8.60;99.90
37086;DHT22;23001;45.952;12.676;2023-11-21T01:51:43;8.70;99.90
37086;DHT22;23001;45.952;12.676;2023-11-21T01:54:11;8.70;99.90
37086;DHT22;23001;45.952;12.676;2023-11-21T01:56:37;8.60;99.90
37086;DHT22;23001;45.952;12.676;2023-11-21T01:59:03;8.60;99.90
37086;DHT22;23001;45.952;12.676;2023-11-21T02:01:28;8.60;99.90
37086;DHT22;23001;45.952;12.676;2023-11-21T02:03:54;8.60;99.90
37086;DHT22;23001;45.952;12.676;2023-11-21T02:06:21;8.60;99.90
37086;DHT22;23001;45.952;12.676;2023-11-21T02:08:47;8.60;99.90
37086;DHT22;23001;45.952;12.676;2023-11-21T02:11:13;8.60;99.90
37086;DHT22;23001;45.952;12.676;2023-11-21T02:13:38;8.60;99.90
37086;DHT22;23001;45.952;12.676;2023-11-21T02:16:09;8.60;99.90
37086;DHT22;23001;45.952;12.676;2023-11-21T02:18:35;8.70;99.90
37086;DHT22;23001;45.952;12.676;2023-11-21T02:21:03;8.70;99.90
37086;DHT22;23001;45.952;12.676;2023-11-21T02:23:29;8.70;99.90
37086;DHT22;23001;45.952;12.676;2023-11-21T02:25:55;8.70;99.90
37086;DHT22;23001;45.952;12.676;2023-11-21T02:28:20;8.70;99.90
37086;DHT22;23001;45.952;12.676;2023-11-21T02:30:51;8.70;99.90
37086;DHT22;23001;45.952;12.676;2023-11-21T02:33:21;8.70;99.90
37086;DHT22;23001;45.952;12.676;2023-11-21T02:35:46;8.70;99.90
37086;DHT22;23001;45.952;12.676;2023-11-21T02:38:12;8.70;99.90
37086;DHT22;23001;45.952;12.676;2023-11-21T02:40:38;8.60;99.90
37086;DHT22;23001;45.952;12.676;2023-11-21T02:43:03;8.70;99.90
37086;DHT22;23001;45.952;12.676;2023-11-21T02:45:31;8.70;99.90
37086;DHT22;23001;45.952;12.676;2023-11-21T02:47:57;8.70;99.90
37086;DHT22;23001;45.952;12.676;2023-11-21T02:50:23;8.70;99.90
37086;DHT22;23001;45.952;12.676;2023-11-21T02:52:48;8.70;99.90
37086;DHT22;23001;45.952;12.676;2023-11-21T02:55:16;8.70;99.90
37086;DHT22;23001;45.952;12.676;2023-11-21T02:57:41;8.80;99.90
37086;DHT22;23001;45.952;12.676;2023-11-21T03:00:07;8.80;99.90
37086;DHT22;23001;45.952;12.676;2023-11-21T03:02:33;8.80;99.90
37086;DHT22;23001;45.952;12.676;2023-11-21T03:05:02;8.90;99.90
37086;DHT22;23001;45.952;12.676;2023-11-21T03:07:27;8.90;99.90
37086;DHT22;23001;45.952;12.676;2023-11-21T03:09:53;8.80;99.90
37086;DHT22;23001;45.952;12.676;2023-11-21T03:12:18;8.80;99.90
37086;DHT22;23001;45.952;12.676;2023-11-21T03:14:44;8.80;99.90
37086;DHT22;23001;45.952;12.676;2023-11-21T03:17:10;8.80;99.90
37086;DHT22;23001;45.952;12.676;2023-11-21T03:19:36;8.80;99.90
37086;DHT22;23001;45.952;12.676;2023-11-21T03:22:02;8.90;99.90
37086;DHT22;23001;45.952;12.676;2023-11-21T03:24:29;8.90;99.90
37086;DHT22;23001;45.952;12.676;2023-11-21T03:26:55;8.90;99.90
37086;DHT22;23001;45.952;12.676;2023-11-21T03:29:20;8.90;99.90
37086;DHT22;23001;45.952;12.676;2023-11-21T03:31:46;8.90;99.90
37086;DHT22;23001;45.952;12.676;2023-11-21T03:34:15;8.90;99.90
37086;DHT22;23001;45.952;12.676;2023-11-21T03:36:41;8.90;99.90
37086;DHT22;23001;45.952;12.676;2023-11-21T03:39:07;8.90;99.90
37086;DHT22;23001;45.952;12.676;2023-11-21T03:41:32;8.90;99.90
37086;DHT22;23001;45.952;12.676;2023-11-21T03:43:59;8.90;99.90
37086;DHT22;23001;45.952;12.676;2023-11-21T03:46:24;8.90;99.90
37086;DHT22;23001;45.952;12.676;2023-11-21T03:48:50;8.90;99.90
37086;DHT22;23001;45.952;12.676;2023-11-21T03:51:16;8.80;99.90
37086;DHT22;23001;45.952;12.676;2023-11-21T03:53:42;8.80;99.90
37086;DHT22;23001;45.952;12.676;2023-11-21T03:56:07;8.90;99.90
37086;DHT22;23001;45.952;12.676;2023-11-21T03:58:33;8.80;99.90
37086;DHT22;23001;45.952;12.676;2023-11-21T04:00:59;8.90;99.90
37086;DHT22;23001;45.952;12.676;2023-11-21T04:03:25;8.80;99.90
37086;DHT22;23001;45.952;12.676;2023-11-21T04:05:50;8.80;99.90
37086;DHT22;23001;45.952;12.676;2023-11-21T04:08:16;8.70;99.90
37086;DHT22;23001;45.952;12.676;2023-11-21T04:10:41;8.80;99.90
37086;DHT22;23001;45.952;12.676;2023-11-21T04:13:07;8.80;99.90
37086;DHT22;23001;45.952;12.676;2023-11-21T04:15:33;8.80;99.90
37086;DHT22;23001;45.952;12.676;2023-11-21T04:17:58;8.80;99.90
37086;DHT22;23001;45.952;12.676;2023-11-21T04:20:24;8.70;99.90
37086;DHT22;23001;45.952;12.676;2023-11-21T04:22:50;8.70;99.90
37086;DHT22;23001;45.952;12.676;2023-11-21T04:25:15;8.70;99.90
37086;DHT22;23001;45.952;12.676;2023-11-21T04:27:41;8.70;99.90
37086;DHT22;23001;45.952;12.676;2023-11-21T04:30:09;8.80;99.90
37086;DHT22;23001;45.952;12.676;2023-11-21T04:32:35;8.70;99.90
37086;DHT22;23001;45.952;12.676;2023-11-21T04:35:01;8.80;99.90
37086;DHT22;23001;45.952;12.676;2023-11-21T04:37:26;8.70;99.90
37086;DHT22;23001;45.952;12.676;2023-11-21T04:39:52;8.70;99.90
37086;DHT22;23001;45.952;12.676;2023-11-21T04:42:17;8.70;99.90
37086;DHT22;23001;45.952;12.676;2023-11-21T04:44:43;8.70;99.90
37086;DHT22;23001;45.952;12.676;2023-11-21T04:47:09;8.70;99.90
37086;DHT22;23001;45.952;12.676;2023-11-21T04:49:35;8.60;99.90
37086;DHT22;23001;45.952;12.676;2023-11-21T04:52:00;8.50;99.90
37086;DHT22;23001;45.952;12.676;2023-11-21T04:54:27;8.50;99.90
37086;DHT22;23001;45.952;12.676;2023-11-21T04:56:52;8.50;99.90
37086;DHT22;23001;45.952;12.676;2023-11-21T04:59:18;8.50;99.90
37086;DHT22;23001;45.952;12.676;2023-11-21T05:01:43;8.50;99.90
37086;DHT22;23001;45.952;12.676;2023-11-21T05:04:09;8.50;99.90
37086;DHT22;23001;45.952;12.676;2023-11-21T05:06:35;8.40;99.90
37086;DHT22;23001;45.952;12.676;2023-11-21T05:09:00;8.40;99.90
37086;DHT22;23001;45.952;12.676;2023-11-21T05:11:26;8.40;99.90
37086;DHT22;23001;45.952;12.676;2023-11-21T05:13:52;8.40;99.90
37086;DHT22;23001;45.952;12.676;2023-11-21T05:16:19;8.40;99.90
37086;DHT22;23001;45.952;12.676;2023-11-21T05:18:44;8.50;99.90
37086;DHT22;23001;45.952;12.676;2023-11-21T05:21:10;8.50;99.90
37086;DHT22;23001;45.952;12.676;2023-11-21T05:23:35;8.60;99.90
37086;DHT22;23001;45.952;12.676;2023-11-21T05:26:03;8.60;99.90
37086;DHT22;23001;45.952;12.676;2023-11-21T05:28:28;8.50;99.90
37086;DHT22;23001;45.952;12.676;2023-11-21T05:30:54;8.50;99.90
37086;DHT22;23001;45.952;12.676;2023-11-21T05:33:20;8.60;99.90
37086;DHT22;23001;45.952;12.676;2023-11-21T05:35:45;8.50;99.90
37086;DHT22;23001;45.952;12.676;2023-11-21T05:38:11;8.60;99.90
37086;DHT22;23001;45.952;12.676;2023-11-21T05:40:37;8.60;99.90
37086;DHT22;23001;45.952;12.676;2023-11-21T05:43:02;8.60;99.90
37086;DHT22;23001;45.952;12.676;2023-11-21T05:45:30;8.70;99.90
37086;DHT22;23001;45.952;12.676;2023-11-21T05:47:57;8.70;99.90
37086;DHT22;23001;45.952;12.676;2023-11-21T05:50:22;8.70;99.90
37086;DHT22;23001;45.952;12.676;2023-11-21T05:52:48;8.70;99.90
37086;DHT22;23001;45.952;12.676;2023-11-21T05:55:14;8.70;99.90
37086;DHT22;23001;45.952;12.676;2023-11-21T05:57:40;8.70;99.90
37086;DHT22;23001;45.952;12.676;2023-11-21T06:00:10;8.70;99.90
37086;DHT22;23001;45.952;12.676;2023-11-21T06:02:38;8.70;99.90
37086;DHT22;23001;45.952;12.676;2023-11-21T06:05:04;8.70;99.90
37086;DHT22;23001;45.952;12.676;2023-11-21T06:07:30;8.70;99.90
37086;DHT22;23001;45.952;12.676;2023-11-21T06:09:55;8.70;99.90
37086;DHT22;23001;45.952;12.676;2023-11-21T06:12:21;8.70;99.90
37086;DHT22;23001;45.952;12.676;2023-11-21T06:14:46;8.80;99.90
37086;DHT22;23001;45.952;12.676;2023-11-21T06:17:13;8.70;99.90
37086;DHT22;23001;45.952;12.676;2023-11-21T06:19:39;8.70;99.90
37086;DHT22;23001;45.952;12.676;2023-11-21T06:22:05;8.70;99.90
37086;DHT22;23001;45.952;12.676;2023-11-21T06:24:31;8.80;99.90
37086;DHT22;23001;45.952;12.676;2023-11-21T06:26:57;8.80;99.90
37086;DHT22;23001;45.952;12.676;2023-11-21T06:29:22;8.80;99.90
37086;DHT22;23001;45.952;12.676;2023-11-21T06:31:48;8.80;99.90
37086;DHT22;23001;45.952;12.676;2023-11-21T06:34:13;8.80;99.90
37086;DHT22;23001;45.952;12.676;2023-11-21T06:36:39;8.80;99.90
37086;DHT22;23001;45.952;12.676;2023-11-21T06:39:04;8.90;99.90
37086;DHT22;23001;45.952;12.676;2023-11-21T06:41:34;8.90;99.90
37086;DHT22;23001;45.952;12.676;2023-11-21T06:44:00;8.90;99.90
37086;DHT22;23001;45.952;12.676;2023-11-21T06:46:25;8.90;99.90
37086;DHT22;23001;45.952;12.676;2023-11-21T06:48:51;9.00;99.90
37086;DHT22;23001;45.952;12.676;2023-11-21T06:51:16;9.00;99.90
37086;DHT22;23001;45.952;12.676;2023-11-21T06:53:43;9.10;99.90
37086;DHT22;23001;45.952;12.676;2023-11-21T06:56:15;9.10;99.90
37086;DHT22;23001;45.952;12.676;2023-11-21T06:58:40;9.20;99.90
37086;DHT22;23001;45.952;12.676;2023-11-21T07:01:06;9.20;99.90
37086;DHT22;23001;45.952;12.676;2023-11-21T07:03:32;9.30;99.90
37086;DHT22;23001;45.952;12.676;2023-11-21T07:06:00;9.40;99.90
37086;DHT22;23001;45.952;12.676;2023-11-21T07:08:25;9.40;99.90
37086;DHT22;23001;45.952;12.676;2023-11-21T07:10:51;9.50;99.90
37086;DHT22;23001;45.952;12.676;2023-11-21T07:13:18;9.60;99.90
37086;DHT22;23001;45.952;12.676;2023-11-21T07:15:43;9.60;99.90
37086;DHT22;23001;45.952;12.676;2023-11-21T07:18:09;9.60;99.90
37086;DHT22;23001;45.952;12.676;2023-11-21T07:20:34;9.70;99.90
37086;DHT22;23001;45.952;12.676;2023-11-21T07:23:00;9.70;99.90
37086;DHT22;23001;45.952;12.676;2023-11-21T07:25:26;9.80;99.90
37086;DHT22;23001;45.952;12.676;2023-11-21T07:27:52;10.00;99.90
37086;DHT22;23001;45.952;12.676;2023-11-21T07:30:21;10.20;99.90
37086;DHT22;23001;45.952;12.676;2023-11-21T07:32:48;10.30;99.90
37086;DHT22;23001;45.952;12.676;2023-11-21T07:35:13;10.40;99.90
37086;DHT22;23001;45.952;12.676;2023-11-21T07:37:39;10.50;99.90
37086;DHT22;23001;45.952;12.676;2023-11-21T07:40:05;10.40;99.90
37086;DHT22;23001;45.952;12.676;2023-11-21T07:42:31;10.40;99.90
37086;DHT22;23001;45.952;12.676;2023-11-21T07:44:56;10.50;99.90
37086;DHT22;23001;45.952;12.676;2023-11-21T07:47:22;10.50;99.90
37086;DHT22;23001;45.952;12.676;2023-11-21T07:49:48;10.60;99.90
37086;DHT22;23001;45.952;12.676;2023-11-21T07:52:13;10.70;99.90
37086;DHT22;23001;45.952;12.676;2023-11-21T07:54:41;10.80;99.90
37086;DHT22;23001;45.952;12.676;2023-11-21T07:57:07;10.70;99.90
37086;DHT22;23001;45.952;12.676;2023-11-21T07:59:32;10.70;99.90
37086;DHT22;23001;45.952;12.676;2023-11-21T08:01:58;10.70;99.90
37086;DHT22;23001;45.952;12.676;2023-11-21T08:04:24;10.70;99.90
37086;DHT22;23001;45.952;12.676;2023-11-21T08:06:50;10.70;99.90
37086;DHT22;23001;45.952;12.676;2023-11-21T08:09:16;10.80;99.90
37086;DHT22;23001;45.952;12.676;2023-11-21T08:11:42;10.80;99.90
37086;DHT22;23001;45.952;12.676;2023-11-21T08:14:08;10.90;99.90
37086;DHT22;23001;45.952;12.676;2023-11-21T08:16:34;10.90;99.90
37086;DHT22;23001;45.952;12.676;2023-11-21T08:18:59;10.80;99.90
37086;DHT22;23001;45.952;12.676;2023-11-21T08:21:28;10.80;99.90
37086;DHT22;23001;45.952;12.676;2023-11-21T08:23:54;10.80;99.90
37086;DHT22;23001;45.952;12.676;2023-11-21T08:26:21;10.70;99.90
37086;DHT22;23001;45.952;12.676;2023-11-21T08:28:47;10.70;99.90
37086;DHT22;23001;45.952;12.676;2023-11-21T08:31:25;10.70;99.90
37086;DHT22;23001;45.952;12.676;2023-11-21T08:33:51;10.70;99.90
37086;DHT22;23001;45.952;12.676;2023-11-21T08:36:23;10.70;99.90
37086;DHT22;23001;45.952;12.676;2023-11-21T08:38:51;10.80;99.90
37086;DHT22;23001;45.952;12.676;2023-11-21T08:41:17;10.80;99.90
37086;DHT22;23001;45.952;12.676;2023-11-21T08:43:55;10.80;99.90
37086;DHT22;23001;45.952;12.676;2023-11-21T08:46:21;10.80;99.90
37086;DHT22;23001;45.952;12.676;2023-11-21T08:48:46;10.80;99.90
37086;DHT22;23001;45.952;12.676;2023-11-21T08:51:12;10.70;99.90
37086;DHT22;23001;45.952;12.676;2023-11-21T08:53:39;10.70;99.90
37086;DHT22;23001;45.952;12.676;2023-11-21T08:56:05;10.70;99.90
37086;DHT22;23001;45.952;12.676;2023-11-21T08:58:31;10.80;99.90
37086;DHT22;23001;45.952;12.676;2023-11-21T09:00:57;10.70;99.90
37086;DHT22;23001;45.952;12.676;2023-11-21T09:03:23;10.80;99.90
37086;DHT22;23001;45.952;12.676;2023-11-21T09:05:49;10.80;99.90
37086;DHT22;23001;45.952;12.676;2023-11-21T09:08:14;10.90;99.90
37086;DHT22;23001;45.952;12.676;2023-11-21T09:10:40;10.90;99.90
37086;DHT22;23001;45.952;12.676;2023-11-21T09:13:07;10.80;99.90
37086;DHT22;23001;45.952;12.676;2023-11-21T09:15:34;10.80;99.90
37086;DHT22;23001;45.952;12.676;2023-11-21T09:18:00;10.80;99.90
37086;DHT22;23001;45.952;12.676;2023-11-21T09:20:27;10.80;99.90
37086;DHT22;23001;45.952;12.676;2023-11-21T09:22:53;10.80;99.90
37086;DHT22;23001;45.952;12.676;2023-11-21T09:25:20;10.90;99.90
37086;DHT22;23001;45.952;12.676;2023-11-21T09:27:46;10.90;99.90
37086;DHT22;23001;45.952;12.676;2023-11-21T09:30:12;10.90;99.90
37086;DHT22;23001;45.952;12.676;2023-11-21T09:32:39;10.90;99.90
37086;DHT22;23001;45.952;12.676;2023-11-21T09:35:05;10.90;99.90
37086;DHT22;23001;45.952;12.676;2023-11-21T09:37:33;10.90;99.90
37086;DHT22;23001;45.952;12.676;2023-11-21T09:39:59;10.90;99.90
37086;DHT22;23001;45.952;12.676;2023-11-21T09:47:35;10.90;99.90
37086;DHT22;23001;45.952;12.676;2023-11-21T09:50:01;11.00;99.90
37086;DHT22;23001;45.952;12.676;2023-11-21T09:52:27;11.00;99.90
37086;DHT22;23001;45.952;12.676;2023-11-21T09:54:53;11.00;99.90
37086;DHT22;23001;45.952;12.676;2023-11-21T09:57:20;11.00;99.90
37086;DHT22;23001;45.952;12.676;2023-11-21T09:59:50;11.10;99.90
37086;DHT22;23001;45.952;12.676;2023-11-21T10:02:27;11.10;99.90
37086;DHT22;23001;45.952;12.676;2023-11-21T10:04:56;11.10;99.90
37086;DHT22;23001;45.952;12.676;2023-11-21T10:07:22;11.20;99.90
37086;DHT22;23001;45.952;12.676;2023-11-21T10:09:48;11.20;99.90
37086;DHT22;23001;45.952;12.676;2023-11-21T10:12:16;11.20;99.90
37086;DHT22;23001;45.952;12.676;2023-11-21T10:14:42;11.20;99.90
37086;DHT22;23001;45.952;12.676;2023-11-21T10:17:12;11.30;99.90
37086;DHT22;23001;45.952;12.676;2023-11-21T10:19:38;11.30;99.90
37086;DHT22;23001;45.952;12.676;2023-11-21T10:22:04;11.40;99.90
37086;DHT22;23001;45.952;12.676;2023-11-21T10:24:32;11.50;99.90
37086;DHT22;23001;45.952;12.676;2023-11-21T10:26:58;11.50;99.90
37086;DHT22;23001;45.952;12.676;2023-11-21T10:29:23;11.60;99.90
37086;DHT22;23001;45.952;12.676;2023-11-21T10:31:50;11.80;99.90
37086;DHT22;23001;45.952;12.676;2023-11-21T10:34:27;11.80;99.90
37086;DHT22;23001;45.952;12.676;2023-11-21T10:36:53;11.90;99.90
37086;DHT22;23001;45.952;12.676;2023-11-21T10:39:21;12.00;99.90
37086;DHT22;23001;45.952;12.676;2023-11-21T10:41:49;11.90;99.90
37086;DHT22;23001;45.952;12.676;2023-11-21T10:44:15;11.90;99.90
37086;DHT22;23001;45.952;12.676;2023-11-21T10:46:49;12.00;99.90
37086;DHT22;23001;45.952;12.676;2023-11-21T10:49:25;12.00;99.90
37086;DHT22;23001;45.952;12.676;2023-11-21T10:51:52;12.10;99.90
37086;DHT22;23001;45.952;12.676;2023-11-21T10:54:22;12.20;99.90
37086;DHT22;23001;45.952;12.676;2023-11-21T10:56:49;12.30;99.90
37086;DHT22;23001;45.952;12.676;2023-11-21T10:59:16;12.30;99.90
37086;DHT22;23001;45.952;12.676;2023-11-21T11:01:44;12.40;99.90
37086;DHT22;23001;45.952;12.676;2023-11-21T11:04:10;12.40;99.90
37086;DHT22;23001;45.952;12.676;2023-11-21T11:06:53;12.40;99.90
37086;DHT22;23001;45.952;12.676;2023-11-21T11:09:19;12.40;99.90
37086;DHT22;23001;45.952;12.676;2023-11-21T11:11:46;12.30;99.90
37086;DHT22;23001;45.952;12.676;2023-11-21T11:14:12;12.30;99.90
37086;DHT22;23001;45.952;12.676;2023-11-21T11:16:38;12.20;99.90
37086;DHT22;23001;45.952;12.676;2023-11-21T11:19:09;12.30;99.90
37086;DHT22;23001;45.952;12.676;2023-11-21T11:27:11;12.30;99.90
37086;DHT22;23001;45.952;12.676;2023-11-21T11:29:44;12.30;99.90
37086;DHT22;23001;45.952;12.676;2023-11-21T11:35:04;12.20;99.90
37086;DHT22;23001;45.952;12.676;2023-11-21T11:37:29;12.10;99.90
37086;DHT22;23001;45.952;12.676;2023-11-21T11:39:55;12.10;99.90
37086;DHT22;23001;45.952;12.676;2023-11-21T11:42:22;12.00;99.90
37086;DHT22;23001;45.952;12.676;2023-11-21T11:44:49;12.00;99.90
37086;DHT22;23001;45.952;12.676;2023-11-21T11:52:43;11.90;99.90
37086;DHT22;23001;45.952;12.676;2023-11-21T11:55:13;11.90;99.90
37086;DHT22;23001;45.952;12.676;2023-11-21T11:57:39;11.90;99.90
37086;DHT22;23001;45.952;12.676;2023-11-21T12:02:40;11.80;99.90
37086;DHT22;23001;45.952;12.676;2023-11-21T12:05:09;11.80;99.90
37086;DHT22;23001;45.952;12.676;2023-11-21T12:07:40;11.80;99.90
37086;DHT22;23001;45.952;12.676;2023-11-21T12:10:06;11.80;99.90
37086;DHT22;23001;45.952;12.676;2023-11-21T12:12:32;11.90;99.90
37086;DHT22;23001;45.952;12.676;2023-11-21T12:14:58;11.90;99.90
37086;DHT22;23001;45.952;12.676;2023-11-21T12:17:24;12.00;99.90
37086;DHT22;23001;45.952;12.676;2023-11-21T12:19:50;12.10;99.90
37086;DHT22;23001;45.952;12.676;2023-11-21T12:22:17;12.10;99.90
37086;DHT22;23001;45.952;12.676;2023-11-21T12:24:44;12.10;99.90
37086;DHT22;23001;45.952;12.676;2023-11-21T12:27:09;12.10;99.90
37086;DHT22;23001;45.952;12.676;2023-11-21T12:29:35;12.20;99.90
37086;DHT22;23001;45.952;12.676;2023-11-21T12:32:03;12.30;99.90
37086;DHT22;23001;45.952;12.676;2023-11-21T12:34:28;12.30;99.90
37086;DHT22;23001;45.952;12.676;2023-11-21T12:36:55;12.40;99.90
37086;DHT22;23001;45.952;12.676;2023-11-21T12:39:22;12.40;99.90
37086;DHT22;23001;45.952;12.676;2023-11-21T12:41:48;12.40;99.90
37086;DHT22;23001;45.952;12.676;2023-11-21T12:44:13;12.40;99.90
37086;DHT22;23001;45.952;12.676;2023-11-21T12:46:41;12.40;99.90
37086;DHT22;23001;45.952;12.676;2023-11-21T12:49:07;12.50;99.90
37086;DHT22;23001;45.952;12.676;2023-11-21T12:51:33;12.50;99.90
37086;DHT22;23001;45.952;12.676;2023-11-21T12:54:01;12.60;99.90
37086;DHT22;23001;45.952;12.676;2023-11-21T12:56:27;12.60;99.90
37086;DHT22;23001;45.952;12.676;2023-11-21T12:58:53;12.60;99.90
37086;DHT22;23001;45.952;12.676;2023-11-21T13:01:19;12.60;99.90
37086;DHT22;23001;45.952;12.676;2023-11-21T13:03:56;12.60;99.90
37086;DHT22;23001;45.952;12.676;2023-11-21T13:06:23;12.60;99.90
37086;DHT22;23001;45.952;12.676;2023-11-21T13:08:51;12.60;99.90
37086;DHT22;23001;45.952;12.676;2023-11-21T13:11:17;12.60;99.90
37086;DHT22;23001;45.952;12.676;2023-11-21T13:13:43;12.60;99.90
37086;DHT22;23001;45.952;12.676;2023-11-21T13:16:09;12.60;99.90
37086;DHT22;23001;45.952;12.676;2023-11-21T13:18:35;12.60;99.90
37086;DHT22;23001;45.952;12.676;2023-11-21T13:21:02;12.60;99.90
37086;DHT22;23001;45.952;12.676;2023-11-21T13:23:39;12.70;99.90
37086;DHT22;23001;45.952;12.676;2023-11-21T13:29:26;12.70;99.90
37086;DHT22;23001;45.952;12.676;2023-11-21T13:31:52;12.70;99.90
37086;DHT22;23001;45.952;12.676;2023-11-21T13:34:24;12.60;99.90
37086;DHT22;23001;45.952;12.676;2023-11-21T13:37:08;12.60;99.90
37086;DHT22;23001;45.952;12.676;2023-11-21T13:39:34;12.70;99.90
37086;DHT22;23001;45.952;12.676;2023-11-21T13:42:01;12.60;99.90
37086;DHT22;23001;45.952;12.676;2023-11-21T13:44:32;12.60;99.90
37086;DHT22;23001;45.952;12.676;2023-11-21T13:47:03;12.60;99.90
37086;DHT22;23001;45.952;12.676;2023-11-21T13:49:31;12.50;99.90
37086;DHT22;23001;45.952;12.676;2023-11-21T13:52:01;12.50;99.90
37086;DHT22;23001;45.952;12.676;2023-11-21T13:54:28;12.50;99.90
37086;DHT22;23001;45.952;12.676;2023-11-21T13:56:55;12.40;99.90
37086;DHT22;23001;45.952;12.676;2023-11-21T13:59:20;12.50;99.90
37086;DHT22;23001;45.952;12.676;2023-11-21T14:01:57;12.50;99.90
37086;DHT22;23001;45.952;12.676;2023-11-21T14:04:25;12.50;99.90
37086;DHT22;23001;45.952;12.676;2023-11-21T14:07:19;12.50;99.90
37086;DHT22;23001;45.952;12.676;2023-11-21T14:10:13;12.50;99.90
37086;DHT22;23001;45.952;12.676;2023-11-21T14:12:39;12.50;99.90
37086;DHT22;23001;45.952;12.676;2023-11-21T14:15:10;12.40;99.90
37086;DHT22;23001;45.952;12.676;2023-11-21T14:17:37;12.40;99.90
37086;DHT22;23001;45.952;12.676;2023-11-21T14:20:05;12.40;99.90
37086;DHT22;23001;45.952;12.676;2023-11-21T14:22:38;12.40;99.90
37086;DHT22;23001;45.952;12.676;2023-11-21T14:25:04;12.40;99.90
37086;DHT22;23001;45.952;12.676;2023-11-21T14:27:30;12.40;99.90
37086;DHT22;23001;45.952;12.676;2023-11-21T14:29:57;12.30;99.90
37086;DHT22;23001;45.952;12.676;2023-11-21T14:32:24;12.30;99.90
37086;DHT22;23001;45.952;12.676;2023-11-21T14:34:51;12.20;99.90
37086;DHT22;23001;45.952;12.676;2023-11-21T14:37:17;12.20;99.90
37086;DHT22;23001;45.952;12.676;2023-11-21T14:39:45;12.20;99.90
37086;DHT22;23001;45.952;12.676;2023-11-21T14:42:15;12.10;99.90
37086;DHT22;23001;45.952;12.676;2023-11-21T14:44:43;12.10;99.90
37086;DHT22;23001;45.952;12.676;2023-11-21T14:47:12;12.10;99.90
37086;DHT22;23001;45.952;12.676;2023-11-21T14:49:42;12.00;99.90
37086;DHT22;23001;45.952;12.676;2023-11-21T14:52:22;12.00;99.90
37086;DHT22;23001;45.952;12.676;2023-11-21T14:55:02;12.00;99.90
37086;DHT22;23001;45.952;12.676;2023-11-21T14:57:46;12.00;99.90
37086;DHT22;23001;45.952;12.676;2023-11-21T15:00:15;11.90;99.90
37086;DHT22;23001;45.952;12.676;2023-11-21T15:03:04;11.90;99.90
37086;DHT22;23001;45.952;12.676;2023-11-21T15:05:30;11.80;99.90
37086;DHT22;23001;45.952;12.676;2023-11-21T15:07:56;11.80;99.90
37086;DHT22;23001;45.952;12.676;2023-11-21T15:10:30;11.80;99.90
37086;DHT22;23001;45.952;12.676;2023-11-21T15:13:10;11.80;99.90
37086;DHT22;23001;45.952;12.676;2023-11-21T15:15:36;11.80;99.90
37086;DHT22;23001;45.952;12.676;2023-11-21T15:18:02;11.80;99.90
37086;DHT22;23001;45.952;12.676;2023-11-21T15:20:28;11.80;99.90
37086;DHT22;23001;45.952;12.676;2023-11-21T15:22:54;11.80;99.90
37086;DHT22;23001;45.952;12.676;2023-11-21T15:25:19;11.80;99.90
37086;DHT22;23001;45.952;12.676;2023-11-21T15:27:45;11.70;99.90
37086;DHT22;23001;45.952;12.676;2023-11-21T15:30:14;11.70;99.90
37086;DHT22;23001;45.952;12.676;2023-11-21T15:32:41;11.60;99.90
37086;DHT22;23001;45.952;12.676;2023-11-21T15:35:07;11.60;99.90
37086;DHT22;23001;45.952;12.676;2023-11-21T15:37:37;11.60;99.90
37086;DHT22;23001;45.952;12.676;2023-11-21T15:40:03;11.60;99.90
37086;DHT22;23001;45.952;12.676;2023-11-21T15:42:31;11.60;99.90
37086;DHT22;23001;45.952;12.676;2023-11-21T15:44:56;11.60;99.90
37086;DHT22;23001;45.952;12.676;2023-11-21T15:47:22;11.50;99.90